Time;durP1;ratioP1;P1;durP2;ratioP2;P2;SDS_P1;SDS_P2;PMS_P1;PMS_P2;Temp;Humidity;BMP_temperature;BMP_pressure;BME280_temperature;BME280_humidity;BME280_pressure;Samples;Min_cycle;Max_cycle;Signal;HPM_P1;HPM_P2
2021/03/17 14:19:09;;;;;;;14.20;9.33;;;;;;;4.51;100.00;97738.02;1810164;78;22732;-66
2021/03/17 14:21:39;;;;;;;13.45;9.00;;;;;;;4.42;100.00;97738.05;1793717;79;20899;-66
2021/03/17 14:24:09;;;;;;;12.45;8.78;;;;;;;4.40;100.00;97741.98;1743762;81;21380;-66
2021/03/17 14:26:39;;;;;;;16.32;11.15;;;;;;;4.38;100.00;97741.55;1747907;81;21503;-65
2021/03/17 14:29:09;;;;;;;15.63;10.30;;;;;;;4.42;100.00;97741.97;1734902;82;20963;-65
2021/03/17 14:31:40;;;;;;;16.30;9.50;;;;;;;4.40;100.00;97739.37;1750065;81;20946;-66
2021/03/17 14:34:10;;;;;;;11.65;8.38;;;;;;;4.46;100.00;97750.66;1748994;81;21476;-66
2021/03/17 14:36:41;;;;;;;11.57;8.50;;;;;;;4.51;100.00;97753.68;1750639;80;21195;-65
2021/03/17 14:39:10;;;;;;;14.23;9.65;;;;;;;4.55;100.00;97746.70;1754726;80;21477;-66
2021/03/17 14:41:40;;;;;;;14.35;10.13;;;;;;;4.60;100.00;97756.25;1750528;82;20951;-66
2021/03/17 14:44:11;;;;;;;14.98;9.30;;;;;;;4.61;100.00;97758.42;1714587;83;21481;-65
2021/03/17 14:46:41;;;;;;;11.88;8.45;;;;;;;4.61;100.00;97764.52;1750596;80;21081;-66
2021/03/17 14:49:12;;;;;;;13.35;9.90;;;;;;;4.61;100.00;97759.73;1750431;82;21372;-66
2021/03/17 14:51:42;;;;;;;14.05;10.38;;;;;;;4.61;100.00;97762.34;1750366;82;20970;-66
2021/03/17 14:54:12;;;;;;;12.82;9.50;;;;;;;4.62;100.00;97757.11;1750422;82;20969;-66
2021/03/17 14:56:43;;;;;;;12.50;8.98;;;;;;;4.60;100.00;97771.05;1720488;83;20972;-66
2021/03/17 14:59:12;;;;;;;14.07;9.50;;;;;;;4.55;100.00;97773.68;1750455;81;20963;-66
2021/03/17 15:01:43;;;;;;;11.55;8.68;;;;;;;4.49;100.00;97768.92;1720529;83;21425;-66
2021/03/17 15:04:15;;;;;;;14.43;9.75;;;;;;;4.49;100.00;97768.92;1750370;81;20962;-66
2021/03/17 15:06:44;;;;;;;12.45;9.18;;;;;;;4.45;100.00;97774.59;1720852;83;20952;-65
2021/03/17 15:09:13;;;;;;;12.15;8.73;;;;;;;4.39;100.00;97774.19;1750540;82;20935;-66
2021/03/17 15:11:42;;;;;;;11.80;9.10;;;;;;;4.36;100.00;97772.02;1720684;83;20971;-66
2021/03/17 15:14:11;;;;;;;13.50;8.95;;;;;;;4.33;100.00;97784.65;1750607;81;21384;-65
2021/03/17 15:16:40;;;;;;;12.65;9.58;;;;;;;4.32;100.00;97780.30;1695472;82;21530;-66
2021/03/17 15:19:10;;;;;;;13.90;9.10;;;;;;;4.30;100.00;97784.66;1751715;81;20994;-66
2021/03/17 15:21:40;;;;;;;15.98;9.15;;;;;;;4.28;100.00;97781.63;1770721;81;21125;-66
2021/03/17 15:24:09;;;;;;;14.30;9.55;;;;;;;4.26;100.00;97787.28;1766932;80;20987;-68
2021/03/17 15:26:38;;;;;;;13.40;9.20;;;;;;;4.24;100.00;97787.25;1770513;81;21380;-64
2021/03/17 15:29:09;;;;;;;12.95;9.95;;;;;;;4.23;100.00;97791.17;1760944;81;21018;-67
2021/03/17 15:31:39;;;;;;;16.93;10.38;;;;;;;4.23;100.00;97792.05;1752497;81;20978;-66
2021/03/17 15:34:09;;;;;;;19.02;11.85;;;;;;;4.27;100.00;97791.63;1714841;82;20999;-69
2021/03/17 15:36:39;;;;;;;18.48;11.03;;;;;;;4.29;100.00;97786.84;1709656;82;21019;-69
2021/03/17 15:39:08;;;;;;;23.87;15.80;;;;;;;4.30;100.00;97785.09;1731479;82;21341;-69
2021/03/17 15:41:39;;;;;;;16.50;12.30;;;;;;;4.32;100.00;97793.79;1739647;81;21006;-71
2021/03/17 15:44:08;;;;;;;14.33;11.12;;;;;;;4.31;100.00;97802.49;1739498;82;21053;-68
2021/03/17 15:46:38;;;;;;;17.92;12.55;;;;;;;4.31;100.00;97798.14;1740327;81;21050;-69
2021/03/17 15:49:08;;;;;;;18.75;12.35;;;;;;;4.36;100.00;97802.91;1711355;81;20924;-68
2021/03/17 15:51:39;;;;;;;16.15;11.60;;;;;;;4.39;100.00;97806.81;1712150;82;21081;-68
2021/03/17 15:54:08;;;;;;;15.40;10.45;;;;;;;4.42;100.00;97808.11;1710337;82;20983;-68
2021/03/17 15:56:38;;;;;;;12.78;8.70;;;;;;;4.43;100.00;97807.67;1710204;82;20959;-67
2021/03/17 15:59:07;;;;;;;11.78;8.93;;;;;;;4.45;100.00;97811.15;1729420;81;21493;-68
2021/03/17 16:01:37;;;;;;;12.00;8.63;;;;;;;4.45;100.00;97812.89;1747028;82;20951;-68
2021/03/17 16:04:06;;;;;;;10.48;8.20;;;;;;;4.41;100.00;97818.12;1755137;80;21188;-68
2021/03/17 16:06:35;;;;;;;11.25;8.93;;;;;;;4.40;100.00;97813.77;1721277;82;21510;-68
2021/03/17 16:09:05;;;;;;;11.68;7.60;;;;;;;4.34;100.00;97817.71;1732777;82;20917;-68
2021/03/17 16:11:35;;;;;;;9.50;7.62;;;;;;;4.33;100.00;97823.80;1739429;82;20935;-68
2021/03/17 16:14:04;;;;;;;10.45;7.90;;;;;;;4.34;100.00;97825.55;1739981;81;20946;-67
2021/03/17 16:16:33;;;;;;;10.70;7.87;;;;;;;4.35;100.00;97823.36;1762841;81;21421;-67
2021/03/17 16:19:02;;;;;;;11.35;8.53;;;;;;;4.34;100.00;97832.50;1760373;81;21497;-67
2021/03/17 16:21:31;;;;;;;16.15;8.28;;;;;;;4.30;100.00;97832.08;1763236;80;20912;-68
2021/03/17 16:24:00;;;;;;;12.55;8.53;;;;;;;4.29;100.00;97836.44;1755730;81;21480;-67
2021/03/17 16:26:30;;;;;;;12.60;10.08;;;;;;;4.26;100.00;97831.66;1750129;82;20942;-68
2021/03/17 16:29:00;;;;;;;13.15;9.73;;;;;;;4.27;100.00;97834.70;1784858;80;21385;-67
2021/03/17 16:31:29;;;;;;;13.03;10.15;;;;;;;4.26;100.00;97832.52;1720208;82;20962;-67
2021/03/17 16:33:58;;;;;;;12.65;9.75;;;;;;;4.27;100.00;97842.09;1784816;80;20934;-67
2021/03/17 16:36:28;;;;;;;11.88;8.73;;;;;;;4.26;100.00;97846.02;1720237;82;20902;-68
2021/03/17 16:38:58;;;;;;;12.68;8.65;;;;;;;4.23;100.00;97845.55;1784880;80;20918;-67
2021/03/17 16:41:27;;;;;;;12.58;9.13;;;;;;;4.20;100.00;97841.64;1720418;83;21387;-67
2021/03/17 16:43:58;;;;;;;14.78;9.73;;;;;;;4.21;100.00;97842.52;1784907;80;20907;-67
2021/03/17 16:46:28;;;;;;;12.50;8.85;;;;;;;4.19;100.00;97852.08;1742928;80;20958;-67
2021/03/17 16:48:57;;;;;;;11.80;8.60;;;;;;;4.19;100.00;97858.17;1787378;79;21474;-67
2021/03/17 16:51:26;;;;;;;11.12;8.28;;;;;;;4.20;100.00;97862.95;1784805;80;20927;-67
2021/03/17 16:53:57;;;;;;;10.23;8.40;;;;;;;4.18;100.00;97862.09;1814819;79;21449;-67
2021/03/17 16:56:27;;;;;;;11.22;8.23;;;;;;;4.16;100.00;97867.75;1813041;79;20898;-67
2021/03/17 16:58:56;;;;;;;9.43;7.47;;;;;;;4.10;100.00;97867.32;1817399;79;20953;-67
2021/03/17 17:01:27;;;;;;;11.05;7.65;;;;;;;4.10;100.00;97873.41;1810661;78;21371;-67
2021/03/17 17:03:56;;;;;;;9.98;7.65;;;;;;;4.09;100.00;97867.76;1784812;80;21505;-68
2021/03/17 17:06:27;;;;;;;10.82;8.20;;;;;;;4.09;100.00;97868.19;1784869;80;22120;-67
2021/03/17 17:08:56;;;;;;;11.22;8.73;;;;;;;4.11;100.00;97876.89;1784837;80;20939;-68
2021/03/17 17:11:26;;;;;;;10.95;7.97;;;;;;;4.07;100.00;97872.11;1784916;80;20955;-67
2021/03/17 17:13:56;;;;;;;10.35;7.85;;;;;;;4.08;100.00;97884.72;1784796;80;20944;-68
2021/03/17 17:16:26;;;;;;;11.53;7.47;;;;;;;4.09;100.00;97889.07;1788822;79;20893;-68
2021/03/17 17:18:57;;;;;;;12.20;7.90;;;;;;;4.08;100.00;97888.63;1787927;79;21523;-67
2021/03/17 17:21:26;;;;;;;12.70;8.35;;;;;;;4.07;100.00;97884.28;1744174;81;20968;-68
2021/03/17 17:23:56;;;;;;;11.05;7.47;;;;;;;4.04;100.00;97896.90;1742724;81;20959;-68
2021/03/17 17:26:25;;;;;;;10.43;8.00;;;;;;;4.03;100.00;97891.25;1743894;81;21060;-67
2021/03/17 17:28:57;;;;;;;11.73;7.53;;;;;;;4.06;100.00;97895.59;1711961;82;20947;-68
2021/03/17 17:31:27;;;;;;;14.50;9.73;;;;;;;4.07;100.00;97892.11;1726882;81;21312;-68
2021/03/17 17:34:00;;;;;;;12.85;8.15;;;;;;;4.07;100.00;97899.51;1740801;81;20915;-68
2021/03/17 17:36:29;;;;;;;10.53;7.17;;;;;;;4.04;100.00;97894.29;1732924;81;21013;-69
2021/03/17 17:38:59;;;;;;;11.28;7.33;;;;;;;4.03;100.00;97896.91;1735860;81;21021;-69
2021/03/17 17:41:29;;;;;;;8.73;6.37;;;;;;;4.04;100.00;97900.81;1787257;79;20950;-68
2021/03/17 17:43:58;;;;;;;7.87;6.35;;;;;;;4.06;100.00;97899.08;1782431;79;21449;-69
2021/03/17 17:46:28;;;;;;;7.25;5.95;;;;;;;4.04;100.00;97901.25;1747582;81;20955;-68
2021/03/17 17:48:58;;;;;;;7.35;5.60;;;;;;;4.01;100.00;97902.12;1741527;82;20994;-67
2021/03/17 17:51:28;;;;;;;7.85;5.50;;;;;;;3.99;100.00;97904.30;1739328;82;21059;-66
2021/03/17 17:53:58;;;;;;;5.62;5.00;;;;;;;3.96;100.00;97909.08;1705084;83;21486;-68
2021/03/17 17:56:28;;;;;;;7.97;6.22;;;;;;;3.96;100.00;97916.03;1765343;81;21248;-66
2021/03/17 17:58:59;;;;;;;7.85;6.60;;;;;;;3.94;100.00;97915.16;1765059;81;20919;-67
2021/03/17 18:01:30;;;;;;;7.37;6.10;;;;;;;3.88;100.00;97917.34;1765415;81;20962;-66
2021/03/17 18:03:59;;;;;;;7.65;6.00;;;;;;;3.85;100.00;97913.42;1766578;79;21126;-68
2021/03/17 18:06:29;;;;;;;7.33;5.03;;;;;;;3.86;100.00;97918.20;1797861;79;20943;-68
2021/03/17 18:08:59;;;;;;;6.92;5.35;;;;;;;3.81;100.00;97914.29;1797994;79;22086;-67
2021/03/17 18:11:28;;;;;;;6.78;5.67;;;;;;;3.79;100.00;97917.34;1797814;79;20939;-68
2021/03/17 18:13:59;;;;;;;6.37;5.45;;;;;;;3.76;100.00;97919.91;1797868;79;21069;-67
2021/03/17 18:16:28;;;;;;;7.17;6.00;;;;;;;3.77;100.00;97919.03;1798051;79;20934;-68
2021/03/17 18:18:58;;;;;;;7.90;5.97;;;;;;;3.77;100.00;97921.64;1800771;79;20919;-68
2021/03/17 18:21:27;;;;;;;7.60;6.22;;;;;;;3.75;100.00;97917.73;1775392;79;22132;-67
2021/03/17 18:23:56;;;;;;;6.75;5.70;;;;;;;3.76;100.00;97922.52;1806337;79;20937;-66
2021/03/17 18:26:26;;;;;;;8.75;5.95;;;;;;;3.75;100.00;97928.59;1806406;79;20938;-66
2021/03/17 18:28:56;;;;;;;7.90;6.10;;;;;;;3.73;100.00;97925.98;1812338;79;21042;-68
2021/03/17 18:31:25;;;;;;;6.92;5.53;;;;;;;3.72;100.00;97928.59;1786120;78;21062;-69
2021/03/17 18:33:55;;;;;;;7.40;5.95;;;;;;;3.71;100.00;97925.55;1784751;80;21415;-67
2021/03/17 18:36:24;;;;;;;7.10;6.12;;;;;;;3.68;100.00;97931.63;1801857;79;21132;-67
2021/03/17 18:38:54;;;;;;;6.92;5.62;;;;;;;3.69;100.00;97928.16;1808849;79;21099;-67
2021/03/17 18:41:23;;;;;;;7.55;5.72;;;;;;;3.69;100.00;97930.77;1810776;79;20950;-68
2021/03/17 18:43:53;;;;;;;8.80;5.97;;;;;;;3.68;100.00;97932.06;1807527;78;21005;-67
2021/03/17 18:46:23;;;;;;;10.95;6.92;;;;;;;3.66;100.00;97933.37;1785237;79;20961;-67
2021/03/17 18:48:52;;;;;;;15.23;9.45;;;;;;;3.68;100.00;97929.45;1784640;80;21084;-69
2021/03/17 18:51:22;;;;;;;11.15;7.42;;;;;;;3.66;100.00;97933.37;1784895;80;21056;-67
2021/03/17 18:53:51;;;;;;;10.08;6.35;;;;;;;3.62;100.00;97927.71;1750011;82;21088;-67
2021/03/17 18:56:21;;;;;;;7.95;6.22;;;;;;;3.65;100.00;97935.54;1749901;80;21061;-66
2021/03/17 18:58:51;;;;;;;9.28;7.05;;;;;;;3.67;100.00;97938.15;1749872;82;21413;-66
2021/03/17 19:01:20;;;;;;;16.15;6.75;;;;;;;3.69;100.00;97937.72;1784749;79;21096;-68
2021/03/17 19:03:52;;;;;;;10.32;6.40;;;;;;;3.65;100.00;97939.45;1786731;79;21505;-68
2021/03/17 19:06:21;;;;;;;8.63;6.42;;;;;;;3.62;100.00;97940.75;1793327;78;21476;-68
2021/03/17 19:08:50;;;;;;;7.28;5.60;;;;;;;3.63;100.00;97940.31;1788995;79;21062;-68
2021/03/17 19:11:20;;;;;;;6.80;6.10;;;;;;;3.70;100.00;97942.06;1794616;79;21411;-68
2021/03/17 19:13:49;;;;;;;7.22;5.60;;;;;;;3.71;100.00;97943.80;1753846;80;20983;-68
2021/03/17 19:16:21;;;;;;;7.30;6.45;;;;;;;3.70;100.00;97941.63;1750028;80;21490;-67
2021/03/17 19:18:50;;;;;;;6.87;5.78;;;;;;;3.66;100.00;97941.63;1783089;80;21055;-68
2021/03/17 19:21:20;;;;;;;6.55;5.45;;;;;;;3.68;100.00;97943.37;1774280;81;20952;-68
2021/03/17 19:23:49;;;;;;;6.45;5.70;;;;;;;3.67;100.00;97945.98;1774297;80;22295;-68
2021/03/17 19:26:18;;;;;;;6.67;5.97;;;;;;;3.65;100.00;97945.97;1774183;80;20916;-67
2021/03/17 19:28:49;;;;;;;6.78;5.80;;;;;;;3.63;100.00;97952.05;1774202;80;21559;-68
2021/03/17 19:31:21;;;;;;;8.30;6.60;;;;;;;3.63;100.00;97950.75;1774223;80;20972;-60
2021/03/17 19:33:52;;;;;;;6.78;5.50;;;;;;;3.62;100.00;97951.18;1774383;80;21069;-68
2021/03/17 19:36:24;;;;;;;6.45;5.67;;;;;;;3.62;100.00;97953.79;1774157;80;21381;-65
2021/03/17 19:38:53;;;;;;;8.43;6.17;;;;;;;3.64;100.00;97950.75;1774011;80;21087;-66
2021/03/17 19:41:23;;;;;;;6.22;5.60;;;;;;;3.64;100.00;97954.66;1774021;80;21069;-66
2021/03/17 19:43:54;;;;;;;6.12;5.53;;;;;;;3.63;100.00;97950.31;1773863;80;20931;-65
2021/03/17 19:46:26;;;;;;;7.12;6.20;;;;;;;3.65;100.00;97954.23;1774128;81;21073;-66
2021/03/17 19:48:57;;;;;;;6.50;5.60;;;;;;;3.63;100.00;97959.44;1774038;81;21234;-66
2021/03/17 19:51:39;;;;;;;6.60;5.85;;;;;;;3.61;100.00;97957.27;1744747;80;20978;-66
2021/03/17 19:54:27;;;;;;;6.72;6.03;;;;;;;3.60;100.00;97957.26;1774034;80;21598;-66
2021/03/17 19:57:13;;;;;;;7.22;5.97;;;;;;;3.60;100.00;97955.95;1708056;83;21093;-65
2021/03/17 20:00:14;;;;;;;9.85;6.80;;;;;;;3.65;100.00;97955.09;1836965;76;22647;-66
2021/03/17 20:02:48;;;;;;;9.10;6.58;;;;;;;3.59;100.00;97957.70;1808849;79;21025;-66
2021/03/17 20:05:21;;;;;;;10.40;6.33;;;;;;;3.60;100.00;97967.69;1779190;79;22228;-66
2021/03/17 20:07:50;;;;;;;7.53;6.22;;;;;;;3.61;100.00;97966.39;1809535;79;21453;-66
2021/03/17 20:10:20;;;;;;;7.35;6.22;;;;;;;3.61;100.00;97965.09;1809134;79;20928;-66
2021/03/17 20:12:52;;;;;;;8.78;7.00;;;;;;;3.63;100.00;97970.30;1807658;79;20931;-64
2021/03/17 20:15:41;;;;;;;8.05;6.35;;;;;;;3.64;100.00;97970.31;1715121;82;20943;-65
2021/03/17 20:18:11;;;;;;;7.58;6.37;;;;;;;3.64;100.00;97975.95;1739052;82;21373;-64
2021/03/17 20:20:44;;;;;;;7.73;6.50;;;;;;;3.64;100.00;97975.95;1739057;82;20915;-66
2021/03/17 20:23:13;;;;;;;9.63;7.30;;;;;;;3.64;100.00;97982.05;1738827;82;20911;-67
2021/03/17 20:25:43;;;;;;;8.35;6.78;;;;;;;3.65;100.00;97973.35;1738860;82;21062;-66
2021/03/17 20:28:14;;;;;;;9.98;6.80;;;;;;;3.66;100.00;97984.66;1727770;81;21215;-66
2021/03/17 20:30:45;;;;;;;9.75;7.00;;;;;;;3.63;100.00;97971.61;1730687;81;21216;-67
2021/03/17 20:33:20;;;;;;;11.03;7.03;;;;;;;3.62;100.00;97974.65;1732314;80;21179;-65
2021/03/17 20:35:51;;;;;;;7.72;6.15;;;;;;;3.63;100.00;97973.78;1703687;82;21119;-66
2021/03/17 20:38:21;;;;;;;10.23;6.25;;;;;;;3.64;100.00;97972.91;1700062;82;20939;-67
2021/03/17 20:40:51;;;;;;;9.88;6.70;;;;;;;3.65;100.00;97975.96;1744141;80;21551;-64
2021/03/17 20:43:25;;;;;;;7.83;6.17;;;;;;;3.66;100.00;97976.83;1730589;82;22111;-65
2021/03/17 20:45:52;;;;;;;11.40;7.55;;;;;;;3.66;100.00;97975.53;1722821;81;21006;-65
2021/03/17 20:48:23;;;;;;;9.78;6.50;;;;;;;3.69;100.00;97978.14;1733235;82;21074;-65
2021/03/17 20:50:58;;;;;;;8.00;5.53;;;;;;;3.71;100.00;97976.41;1739565;81;21161;-63
2021/03/17 20:53:28;;;;;;;11.35;6.90;;;;;;;3.69;100.00;97981.62;1724532;81;21176;-65
2021/03/17 20:55:58;;;;;;;7.53;5.95;;;;;;;3.69;100.00;97980.31;1703093;82;22429;-63
2021/03/17 20:58:29;;;;;;;10.40;6.30;;;;;;;3.71;100.00;97981.19;1731958;81;21653;-65
2021/03/17 21:01:04;;;;;;;10.65;6.85;;;;;;;3.73;100.00;97986.41;1719942;81;20986;-65
2021/03/17 21:03:38;;;;;;;11.48;6.70;;;;;;;3.79;100.00;97987.76;1717144;82;21135;-66
2021/03/17 21:06:08;;;;;;;11.93;6.75;;;;;;;3.78;100.00;97991.20;1787504;78;21161;-66
2021/03/17 21:08:42;;;;;;;11.95;7.30;;;;;;;3.79;100.00;97990.37;1786041;78;21465;-66
2021/03/17 21:11:13;;;;;;;10.23;7.08;;;;;;;3.81;100.00;97994.28;1759474;79;21172;-66
2021/03/17 21:13:46;;;;;;;11.00;6.97;;;;;;;3.84;100.00;97988.64;1785394;79;21145;-66
2021/03/17 21:16:20;;;;;;;8.85;6.05;;;;;;;3.87;100.00;97988.64;1783747;78;21531;-66
2021/03/17 21:18:52;;;;;;;8.90;6.85;;;;;;;3.94;100.00;97993.44;1749180;80;20990;-65
2021/03/17 21:21:21;;;;;;;11.63;7.90;;;;;;;3.97;100.00;97993.44;1785415;79;21068;-65
2021/03/17 21:23:54;;;;;;;11.88;8.13;;;;;;;3.97;100.00;97987.78;1782999;78;20950;-66
2021/03/17 21:26:25;;;;;;;;;;;;;;;3.98;100.00;97984.74;1789590;80;21619;-66
2021/03/17 21:28:56;;;;;;;15.95;9.20;;;;;;;4.00;100.00;97986.48;1783412;79;20251;-66
2021/03/17 21:31:40;;;;;;;13.18;9.08;;;;;;;4.02;100.00;97986.48;1707574;82;21160;-66
2021/03/17 21:34:13;;;;;;;12.40;9.60;;;;;;;4.04;100.00;97989.53;1748959;80;21208;-66
2021/03/17 21:36:58;;;;;;;12.90;9.13;;;;;;;4.04;100.00;97988.66;1786580;78;20961;-65
2021/03/17 21:39:36;;;;;;;15.10;9.45;;;;;;;4.06;100.00;97985.19;1748744;80;21054;-66
2021/03/17 21:42:06;;;;;;;14.00;9.40;;;;;;;4.08;100.00;97983.88;1749099;80;21148;-65
2021/03/17 21:44:35;;;;;;;14.80;10.25;;;;;;;4.06;100.00;97992.14;1745677;80;21116;-65
2021/03/17 21:47:06;;;;;;;16.70;9.98;;;;;;;4.05;100.00;97984.75;1786846;78;21185;-66
2021/03/17 21:49:39;;;;;;;13.93;10.28;;;;;;;4.03;100.00;97986.92;1783397;80;21033;-66
2021/03/17 21:52:09;;;;;;;;;;;;;;;4.04;100.00;97988.66;1789260;79;21030;-65
2021/03/17 21:54:38;;;;;;;14.03;10.13;;;;;;;4.03;100.00;97992.14;1782881;78;20125;-64
2021/03/17 21:57:09;;;;;;;15.08;10.53;;;;;;;4.01;100.00;97986.05;1786947;78;22831;-67
2021/03/17 21:59:40;;;;;;;15.10;10.63;;;;;;;3.99;100.00;97990.40;1781702;80;21355;-66
2021/03/17 22:02:10;;;;;;;14.87;10.18;;;;;;;3.97;100.00;97989.52;1722601;82;21717;-66
2021/03/17 22:04:41;;;;;;;14.00;10.00;;;;;;;4.01;100.00;97992.58;1722918;82;21229;-66
2021/03/17 22:07:10;;;;;;;12.03;9.88;;;;;;;3.97;100.00;97990.39;1729028;81;21631;-64
2021/03/17 22:09:40;;;;;;;16.85;10.65;;;;;;;3.95;100.00;97989.95;1783023;79;21260;-65
2021/03/17 22:12:11;;;;;;;19.67;11.45;;;;;;;3.92;100.00;97992.12;1690726;82;21482;-66
2021/03/17 22:14:43;;;;;;;16.42;11.28;;;;;;;3.89;100.00;97995.16;1707658;82;21046;-65
2021/03/17 22:17:13;;;;;;;15.03;10.43;;;;;;;3.86;100.00;97996.47;1784876;78;21011;-66
2021/03/17 22:19:43;;;;;;;17.07;10.38;;;;;;;3.85;100.00;97998.20;1764196;79;21009;-66
2021/03/17 22:22:13;;;;;;;15.70;10.55;;;;;;;3.83;100.00;97992.11;1734026;81;21129;-66
2021/03/17 22:24:44;;;;;;;17.42;10.70;;;;;;;3.85;100.00;97998.20;1730017;81;22336;-64
2021/03/17 22:27:14;;;;;;;16.65;10.32;;;;;;;3.83;100.00;98001.24;1750180;80;21015;-65
2021/03/17 22:29:45;;;;;;;15.48;10.20;;;;;;;3.81;100.00;97994.28;1783386;79;20971;-65
2021/03/17 22:32:15;;;;;;;12.53;9.88;;;;;;;3.83;100.00;98000.38;1800638;79;21038;-65
2021/03/17 22:34:47;;;;;;;13.72;10.72;;;;;;;3.84;100.00;97999.07;1762000;80;21055;-65
2021/03/17 22:37:17;;;;;;;17.65;11.25;;;;;;;3.86;100.00;98002.55;1728398;82;21485;-65
2021/03/17 22:39:57;;;;;;;13.45;10.45;;;;;;;3.84;100.00;97996.46;1728275;82;20967;-66
2021/03/17 22:42:27;;;;;;;13.90;10.45;;;;;;;3.84;100.00;97999.51;1728285;82;21015;-66
2021/03/17 22:44:57;;;;;;;11.95;10.30;;;;;;;3.85;100.00;97998.64;1729677;81;21166;-66
2021/03/17 22:47:27;;;;;;;17.07;11.28;;;;;;;3.85;100.00;97998.64;1789797;79;21114;-65
2021/03/17 22:49:58;;;;;;;16.15;11.85;;;;;;;3.86;100.00;97996.47;1787716;79;22811;-65
2021/03/17 22:52:29;;;;;;;14.07;11.05;;;;;;;3.86;100.00;98003.86;1792642;79;20955;-65
2021/03/17 22:54:59;;;;;;;20.92;12.05;;;;;;;3.87;100.00;98001.69;1783660;79;20976;-65
2021/03/17 22:57:30;;;;;;;15.83;11.73;;;;;;;3.90;100.00;97999.52;1725909;82;21007;-65
2021/03/17 23:00:00;;;;;;;15.32;12.43;;;;;;;3.88;100.00;97999.95;1754998;79;20977;-66
2021/03/17 23:02:33;;;;;;;22.42;12.95;;;;;;;3.89;100.00;98005.60;1787542;79;21192;-66
2021/03/17 23:05:06;;;;;;;17.62;13.15;;;;;;;3.86;100.00;98001.69;1766101;81;20970;-65
2021/03/17 23:07:37;;;;;;;20.50;13.62;;;;;;;3.86;100.00;98003.86;1766000;81;21547;-65
2021/03/17 23:10:22;;;;;;;19.60;13.38;;;;;;;3.86;100.00;98011.69;1763024;80;21021;-65
2021/03/17 23:12:55;;;;;;;25.90;14.10;;;;;;;3.90;100.00;98007.34;1721906;82;21480;-65
2021/03/17 23:15:33;;;;;;;21.50;13.45;;;;;;;3.90;100.00;98008.21;1735516;81;21448;-65
2021/03/17 23:18:12;;;;;;;20.57;13.18;;;;;;;3.94;100.00;98009.09;1734776;81;20922;-65
2021/03/17 23:20:48;;;;;;;19.65;13.90;;;;;;;3.94;100.00;98003.87;1735547;81;20945;-66
2021/03/17 23:23:29;;;;;;;23.83;14.20;;;;;;;3.99;100.00;98011.27;1735618;81;21029;-65
2021/03/17 23:26:06;;;;;;;24.90;14.85;;;;;;;3.98;100.00;98014.31;1735628;81;21572;-65
2021/03/17 23:28:37;;;;;;;22.48;15.35;;;;;;;3.98;100.00;98018.66;1735558;81;21586;-65
2021/03/17 23:31:16;;;;;;;20.62;14.60;;;;;;;3.97;100.00;98020.83;1735247;81;21155;-65
2021/03/17 23:33:52;;;;;;;22.67;14.18;;;;;;;4.01;100.00;98021.28;1735616;82;21041;-65
2021/03/17 23:36:23;;;;;;;22.77;14.65;;;;;;;4.02;100.00;98015.19;1746096;81;20911;-65
2021/03/17 23:38:54;;;;;;;24.37;14.55;;;;;;;4.03;100.00;98016.93;1752405;81;20899;-64
2021/03/17 23:41:25;;;;;;;18.65;13.83;;;;;;;4.05;100.00;98011.28;1767967;81;21355;-65
2021/03/17 23:43:58;;;;;;;22.75;13.70;;;;;;;4.02;100.00;98020.41;1787437;79;21480;-64
2021/03/17 23:46:28;;;;;;;24.27;13.95;;;;;;;4.01;100.00;98022.15;1766185;81;20910;-66
2021/03/17 23:48:57;;;;;;;21.30;13.32;;;;;;;4.00;100.00;98023.45;1766068;81;21484;-65
2021/03/17 23:51:30;;;;;;;21.85;13.43;;;;;;;4.01;100.00;98026.50;1765884;80;20974;-65
2021/03/17 23:54:01;;;;;;;;;;;;;;;3.99;100.00;98028.23;1757926;81;21454;-65
2021/03/17 23:56:31;;;;;;;24.20;11.90;;;;;;;4.01;100.00;98030.41;1761311;80;20485;-65
2021/03/17 23:59:02;;;;;;;20.57;11.53;;;;;;;4.01;100.00;98031.72;1729299;81;20943;-66
